Terminal Aerodrome Forecast
Issued by NWS Austin/San Antonio, TX

Home | Current Version | Previous Version | Text Only | Print | Product List | Glossary On
Versions: 1 2 3 4 5 6 7 8 9 10 11 12 13 14 15 16 17 18
000
FTUS44 KEWX 201700
TAFAUS
TAF
KAUS 201737Z 2018/2124 17018G22KT P6SM SCT040 BKN250
     FM210100 15013KT P6SM SCT070
     FM210900 17008KT P6SM BKN015
     FM211600 18012G20KT P6SM SCT040
     FM212000 17015G22KT P6SM SCT050=

USA.gov is the U.S. government's official web portal to all federal, state and local government web resources and services.